sensor_id;sensor_type;location;lat;lon;timestamp;P1;durP1;ratioP1;P2;durP2;ratioP2
74908;SDS011;63468;52.058;4.824;2023-03-01T00:00:38;29.70;;;14.35;;
74908;SDS011;63468;52.058;4.824;2023-03-01T00:03:03;31.08;;;15.52;;
74908;SDS011;63468;52.058;4.824;2023-03-01T00:05:28;33.00;;;13.60;;
74908;SDS011;63468;52.058;4.824;2023-03-01T00:07:54;38.88;;;17.23;;
74908;SDS011;63468;52.058;4.824;2023-03-01T00:10:19;40.40;;;15.98;;
74908;SDS011;63468;52.058;4.824;2023-03-01T00:12:44;29.27;;;16.23;;
74908;SDS011;63468;52.058;4.824;2023-03-01T00:15:10;35.05;;;15.52;;
74908;SDS011;63468;52.058;4.824;2023-03-01T00:17:36;34.17;;;15.27;;
74908;SDS011;63468;52.058;4.824;2023-03-01T00:20:01;34.15;;;14.25;;
74908;SDS011;63468;52.058;4.824;2023-03-01T00:22:27;31.52;;;14.23;;
74908;SDS011;63468;52.058;4.824;2023-03-01T00:24:55;32.83;;;15.48;;
74908;SDS011;63468;52.058;4.824;2023-03-01T00:27:20;32.55;;;14.80;;
74908;SDS011;63468;52.058;4.824;2023-03-01T00:29:45;30.98;;;13.75;;
74908;SDS011;63468;52.058;4.824;2023-03-01T00:32:11;32.13;;;16.00;;
74908;SDS011;63468;52.058;4.824;2023-03-01T00:34:36;35.47;;;17.55;;
74908;SDS011;63468;52.058;4.824;2023-03-01T00:37:01;36.03;;;15.65;;
74908;SDS011;63468;52.058;4.824;2023-03-01T00:39:30;35.58;;;16.63;;
74908;SDS011;63468;52.058;4.824;2023-03-01T00:41:56;31.65;;;14.65;;
74908;SDS011;63468;52.058;4.824;2023-03-01T00:44:21;35.97;;;16.23;;
74908;SDS011;63468;52.058;4.824;2023-03-01T00:46:46;34.45;;;14.98;;
74908;SDS011;63468;52.058;4.824;2023-03-01T00:49:12;38.67;;;17.13;;
74908;SDS011;63468;52.058;4.824;2023-03-01T00:51:38;36.60;;;16.02;;
74908;SDS011;63468;52.058;4.824;2023-03-01T00:54:07;38.10;;;15.85;;
74908;SDS011;63468;52.058;4.824;2023-03-01T00:56:33;36.42;;;16.17;;
74908;SDS011;63468;52.058;4.824;2023-03-01T00:58:58;38.95;;;16.52;;
74908;SDS011;63468;52.058;4.824;2023-03-01T01:01:28;34.90;;;15.50;;
74908;SDS011;63468;52.058;4.824;2023-03-01T01:04:01;37.15;;;17.92;;
74908;SDS011;63468;52.058;4.824;2023-03-01T01:06:35;36.20;;;16.73;;
74908;SDS011;63468;52.058;4.824;2023-03-01T01:09:03;43.50;;;17.98;;
74908;SDS011;63468;52.058;4.824;2023-03-01T01:11:29;38.33;;;17.88;;
74908;SDS011;63468;52.058;4.824;2023-03-01T01:13:55;36.83;;;16.83;;
74908;SDS011;63468;52.058;4.824;2023-03-01T01:16:21;40.85;;;18.75;;
74908;SDS011;63468;52.058;4.824;2023-03-01T01:18:47;41.80;;;18.00;;
74908;SDS011;63468;52.058;4.824;2023-03-01T01:21:14;46.17;;;17.50;;
74908;SDS011;63468;52.058;4.824;2023-03-01T01:23:41;46.25;;;20.17;;
74908;SDS011;63468;52.058;4.824;2023-03-01T01:26:08;45.47;;;18.60;;
74908;SDS011;63468;52.058;4.824;2023-03-01T01:28:39;41.17;;;19.10;;
74908;SDS011;63468;52.058;4.824;2023-03-01T01:31:05;36.85;;;17.90;;
74908;SDS011;63468;52.058;4.824;2023-03-01T01:33:31;41.08;;;17.38;;
74908;SDS011;63468;52.058;4.824;2023-03-01T01:35:56;38.13;;;18.95;;
74908;SDS011;63468;52.058;4.824;2023-03-01T01:38:22;47.45;;;18.95;;
74908;SDS011;63468;52.058;4.824;2023-03-01T01:40:48;32.70;;;16.35;;
74908;SDS011;63468;52.058;4.824;2023-03-01T01:45:45;47.72;;;20.58;;
74908;SDS011;63468;52.058;4.824;2023-03-01T01:48:12;37.40;;;19.35;;
74908;SDS011;63468;52.058;4.824;2023-03-01T01:50:40;48.40;;;20.20;;
74908;SDS011;63468;52.058;4.824;2023-03-01T01:53:10;45.08;;;18.55;;
74908;SDS011;63468;52.058;4.824;2023-03-01T01:55:39;51.90;;;21.48;;
74908;SDS011;63468;52.058;4.824;2023-03-01T01:58:08;50.92;;;20.95;;
74908;SDS011;63468;52.058;4.824;2023-03-01T02:00:34;45.22;;;19.73;;
74908;SDS011;63468;52.058;4.824;2023-03-01T02:03:01;41.03;;;18.95;;
74908;SDS011;63468;52.058;4.824;2023-03-01T02:08:19;42.72;;;21.15;;
74908;SDS011;63468;52.058;4.824;2023-03-01T02:10:46;41.75;;;19.33;;
74908;SDS011;63468;52.058;4.824;2023-03-01T02:13:13;53.15;;;21.63;;
74908;SDS011;63468;52.058;4.824;2023-03-01T02:15:39;42.58;;;19.85;;
74908;SDS011;63468;52.058;4.824;2023-03-01T02:18:05;40.50;;;18.27;;
74908;SDS011;63468;52.058;4.824;2023-03-01T02:23:12;39.83;;;19.58;;
74908;SDS011;63468;52.058;4.824;2023-03-01T02:25:40;48.67;;;20.98;;
74908;SDS011;63468;52.058;4.824;2023-03-01T02:30:48;45.42;;;19.48;;
74908;SDS011;63468;52.058;4.824;2023-03-01T02:33:33;48.53;;;20.20;;
74908;SDS011;63468;52.058;4.824;2023-03-01T02:36:01;48.97;;;19.85;;
74908;SDS011;63468;52.058;4.824;2023-03-01T02:38:38;43.75;;;19.33;;
74908;SDS011;63468;52.058;4.824;2023-03-01T02:41:05;44.55;;;20.40;;
74908;SDS011;63468;52.058;4.824;2023-03-01T02:43:31;44.58;;;18.35;;
74908;SDS011;63468;52.058;4.824;2023-03-01T02:45:58;36.42;;;17.25;;
74908;SDS011;63468;52.058;4.824;2023-03-01T02:48:27;38.88;;;18.02;;
74908;SDS011;63468;52.058;4.824;2023-03-01T02:53:21;47.33;;;20.10;;
74908;SDS011;63468;52.058;4.824;2023-03-01T02:55:53;48.60;;;19.55;;
74908;SDS011;63468;52.058;4.824;2023-03-01T02:58:18;43.35;;;19.85;;
74908;SDS011;63468;52.058;4.824;2023-03-01T03:00:44;43.33;;;19.25;;
74908;SDS011;63468;52.058;4.824;2023-03-01T03:03:13;48.60;;;20.30;;
74908;SDS011;63468;52.058;4.824;2023-03-01T03:05:39;38.33;;;18.58;;
74908;SDS011;63468;52.058;4.824;2023-03-01T03:08:04;45.00;;;19.95;;
74908;SDS011;63468;52.058;4.824;2023-03-01T03:10:31;47.53;;;18.80;;
74908;SDS011;63468;52.058;4.824;2023-03-01T03:12:59;45.53;;;19.08;;
74908;SDS011;63468;52.058;4.824;2023-03-01T03:15:26;41.53;;;18.35;;
74908;SDS011;63468;52.058;4.824;2023-03-01T03:17:52;40.83;;;18.33;;
74908;SDS011;63468;52.058;4.824;2023-03-01T03:20:19;46.30;;;21.42;;
74908;SDS011;63468;52.058;4.824;2023-03-01T03:22:46;45.92;;;21.50;;
74908;SDS011;63468;52.058;4.824;2023-03-01T03:25:13;44.05;;;20.27;;
74908;SDS011;63468;52.058;4.824;2023-03-01T03:27:38;47.40;;;20.20;;
74908;SDS011;63468;52.058;4.824;2023-03-01T03:30:09;43.90;;;20.05;;
74908;SDS011;63468;52.058;4.824;2023-03-01T03:32:37;40.63;;;18.17;;
74908;SDS011;63468;52.058;4.824;2023-03-01T03:35:06;45.53;;;20.38;;
74908;SDS011;63468;52.058;4.824;2023-03-01T03:37:36;50.58;;;21.25;;
74908;SDS011;63468;52.058;4.824;2023-03-01T03:40:21;52.70;;;23.48;;
74908;SDS011;63468;52.058;4.824;2023-03-01T03:42:46;47.33;;;19.88;;
74908;SDS011;63468;52.058;4.824;2023-03-01T03:45:13;50.67;;;22.88;;
74908;SDS011;63468;52.058;4.824;2023-03-01T03:47:38;46.30;;;19.58;;
74908;SDS011;63468;52.058;4.824;2023-03-01T03:50:03;43.63;;;19.80;;
74908;SDS011;63468;52.058;4.824;2023-03-01T03:52:29;43.67;;;20.85;;
74908;SDS011;63468;52.058;4.824;2023-03-01T03:54:54;52.22;;;22.55;;
74908;SDS011;63468;52.058;4.824;2023-03-01T03:57:19;45.35;;;19.02;;
74908;SDS011;63468;52.058;4.824;2023-03-01T03:59:46;50.88;;;22.17;;
74908;SDS011;63468;52.058;4.824;2023-03-01T04:02:13;46.97;;;19.75;;
74908;SDS011;63468;52.058;4.824;2023-03-01T04:04:46;41.78;;;20.13;;
74908;SDS011;63468;52.058;4.824;2023-03-01T04:07:14;52.38;;;21.70;;
74908;SDS011;63468;52.058;4.824;2023-03-01T04:09:40;44.38;;;20.77;;
74908;SDS011;63468;52.058;4.824;2023-03-01T04:12:07;49.42;;;21.23;;
74908;SDS011;63468;52.058;4.824;2023-03-01T04:14:33;53.28;;;21.42;;
74908;SDS011;63468;52.058;4.824;2023-03-01T04:16:58;63.60;;;23.73;;
74908;SDS011;63468;52.058;4.824;2023-03-01T04:19:23;52.97;;;21.75;;
74908;SDS011;63468;52.058;4.824;2023-03-01T04:21:49;56.13;;;22.35;;
74908;SDS011;63468;52.058;4.824;2023-03-01T04:24:14;51.65;;;23.88;;
74908;SDS011;63468;52.058;4.824;2023-03-01T04:26:39;52.20;;;22.95;;
74908;SDS011;63468;52.058;4.824;2023-03-01T04:29:05;47.60;;;21.52;;
74908;SDS011;63468;52.058;4.824;2023-03-01T04:31:30;51.70;;;21.80;;
74908;SDS011;63468;52.058;4.824;2023-03-01T04:33:55;52.88;;;22.83;;
74908;SDS011;63468;52.058;4.824;2023-03-01T04:36:21;50.05;;;22.88;;
74908;SDS011;63468;52.058;4.824;2023-03-01T04:38:49;46.28;;;22.33;;
74908;SDS011;63468;52.058;4.824;2023-03-01T04:41:16;48.55;;;20.98;;
74908;SDS011;63468;52.058;4.824;2023-03-01T04:43:43;52.00;;;21.88;;
74908;SDS011;63468;52.058;4.824;2023-03-01T04:46:11;53.55;;;23.67;;
74908;SDS011;63468;52.058;4.824;2023-03-01T04:48:38;54.20;;;23.10;;
74908;SDS011;63468;52.058;4.824;2023-03-01T04:51:05;57.72;;;23.50;;
74908;SDS011;63468;52.058;4.824;2023-03-01T04:53:31;50.05;;;21.63;;
74908;SDS011;63468;52.058;4.824;2023-03-01T04:55:57;44.22;;;21.88;;
74908;SDS011;63468;52.058;4.824;2023-03-01T04:58:23;43.42;;;22.60;;
74908;SDS011;63468;52.058;4.824;2023-03-01T05:00:50;53.30;;;21.67;;
74908;SDS011;63468;52.058;4.824;2023-03-01T05:03:15;52.33;;;20.58;;
74908;SDS011;63468;52.058;4.824;2023-03-01T05:05:43;47.20;;;21.05;;
74908;SDS011;63468;52.058;4.824;2023-03-01T05:08:09;50.00;;;21.52;;
74908;SDS011;63468;52.058;4.824;2023-03-01T05:10:42;44.40;;;19.75;;
74908;SDS011;63468;52.058;4.824;2023-03-01T05:13:11;43.53;;;20.33;;
74908;SDS011;63468;52.058;4.824;2023-03-01T05:15:38;51.97;;;22.33;;
74908;SDS011;63468;52.058;4.824;2023-03-01T05:18:04;46.85;;;19.42;;
74908;SDS011;63468;52.058;4.824;2023-03-01T05:20:32;43.25;;;20.40;;
74908;SDS011;63468;52.058;4.824;2023-03-01T05:23:01;42.55;;;18.17;;
74908;SDS011;63468;52.058;4.824;2023-03-01T05:25:30;41.53;;;18.80;;
74908;SDS011;63468;52.058;4.824;2023-03-01T05:27:57;42.83;;;19.30;;
74908;SDS011;63468;52.058;4.824;2023-03-01T05:30:23;46.10;;;19.33;;
74908;SDS011;63468;52.058;4.824;2023-03-01T05:32:49;45.10;;;20.65;;
74908;SDS011;63468;52.058;4.824;2023-03-01T05:35:20;42.67;;;20.70;;
74908;SDS011;63468;52.058;4.824;2023-03-01T05:37:46;46.53;;;21.52;;
74908;SDS011;63468;52.058;4.824;2023-03-01T05:40:14;43.92;;;19.80;;
74908;SDS011;63468;52.058;4.824;2023-03-01T05:42:43;37.97;;;20.45;;
74908;SDS011;63468;52.058;4.824;2023-03-01T05:45:09;43.70;;;18.05;;
74908;SDS011;63468;52.058;4.824;2023-03-01T05:47:35;46.85;;;20.10;;
74908;SDS011;63468;52.058;4.824;2023-03-01T05:50:01;39.22;;;16.92;;
74908;SDS011;63468;52.058;4.824;2023-03-01T05:52:26;35.78;;;17.90;;
74908;SDS011;63468;52.058;4.824;2023-03-01T05:54:52;36.90;;;18.02;;
74908;SDS011;63468;52.058;4.824;2023-03-01T05:57:17;36.55;;;16.23;;
74908;SDS011;63468;52.058;4.824;2023-03-01T05:59:42;35.53;;;17.20;;
74908;SDS011;63468;52.058;4.824;2023-03-01T06:02:08;33.78;;;17.33;;
74908;SDS011;63468;52.058;4.824;2023-03-01T06:04:33;40.15;;;20.50;;
74908;SDS011;63468;52.058;4.824;2023-03-01T06:06:59;39.20;;;17.58;;
74908;SDS011;63468;52.058;4.824;2023-03-01T06:09:24;41.85;;;19.73;;
74908;SDS011;63468;52.058;4.824;2023-03-01T06:11:50;41.70;;;19.15;;
74908;SDS011;63468;52.058;4.824;2023-03-01T06:14:16;36.67;;;17.80;;
74908;SDS011;63468;52.058;4.824;2023-03-01T06:16:41;38.53;;;19.95;;
74908;SDS011;63468;52.058;4.824;2023-03-01T06:19:06;35.72;;;19.33;;
74908;SDS011;63468;52.058;4.824;2023-03-01T06:21:32;42.50;;;18.60;;
74908;SDS011;63468;52.058;4.824;2023-03-01T06:23:57;39.20;;;18.67;;
74908;SDS011;63468;52.058;4.824;2023-03-01T06:26:22;38.83;;;18.98;;
74908;SDS011;63468;52.058;4.824;2023-03-01T06:28:48;37.97;;;18.10;;
74908;SDS011;63468;52.058;4.824;2023-03-01T06:31:13;35.72;;;16.73;;
74908;SDS011;63468;52.058;4.824;2023-03-01T06:33:38;45.65;;;19.40;;
74908;SDS011;63468;52.058;4.824;2023-03-01T06:36:04;41.38;;;17.60;;
74908;SDS011;63468;52.058;4.824;2023-03-01T06:38:29;37.40;;;18.13;;
74908;SDS011;63468;52.058;4.824;2023-03-01T06:40:55;35.25;;;16.63;;
74908;SDS011;63468;52.058;4.824;2023-03-01T06:43:21;36.35;;;15.75;;
74908;SDS011;63468;52.058;4.824;2023-03-01T06:45:47;41.63;;;15.32;;
74908;SDS011;63468;52.058;4.824;2023-03-01T06:48:12;39.78;;;17.25;;
74908;SDS011;63468;52.058;4.824;2023-03-01T06:50:38;38.35;;;17.98;;
74908;SDS011;63468;52.058;4.824;2023-03-01T06:53:03;36.28;;;16.30;;
74908;SDS011;63468;52.058;4.824;2023-03-01T06:55:29;39.70;;;17.02;;
74908;SDS011;63468;52.058;4.824;2023-03-01T06:57:55;38.22;;;16.55;;
74908;SDS011;63468;52.058;4.824;2023-03-01T07:00:21;39.67;;;17.13;;
74908;SDS011;63468;52.058;4.824;2023-03-01T07:02:47;34.60;;;18.13;;
74908;SDS011;63468;52.058;4.824;2023-03-01T07:05:12;38.42;;;16.05;;
74908;SDS011;63468;52.058;4.824;2023-03-01T07:07:38;37.97;;;15.25;;
74908;SDS011;63468;52.058;4.824;2023-03-01T07:10:03;36.45;;;16.58;;
74908;SDS011;63468;52.058;4.824;2023-03-01T07:12:29;33.13;;;16.05;;
74908;SDS011;63468;52.058;4.824;2023-03-01T07:14:54;35.25;;;16.33;;
74908;SDS011;63468;52.058;4.824;2023-03-01T07:17:19;38.63;;;17.35;;
74908;SDS011;63468;52.058;4.824;2023-03-01T07:19:45;41.60;;;17.95;;
74908;SDS011;63468;52.058;4.824;2023-03-01T07:22:10;36.20;;;16.42;;
74908;SDS011;63468;52.058;4.824;2023-03-01T07:24:35;30.20;;;15.50;;
74908;SDS011;63468;52.058;4.824;2023-03-01T07:27:01;39.88;;;17.60;;
74908;SDS011;63468;52.058;4.824;2023-03-01T07:29:26;34.33;;;16.95;;
74908;SDS011;63468;52.058;4.824;2023-03-01T07:31:52;35.25;;;15.77;;
74908;SDS011;63468;52.058;4.824;2023-03-01T07:34:17;40.00;;;17.52;;
74908;SDS011;63468;52.058;4.824;2023-03-01T07:36:42;42.15;;;17.50;;
74908;SDS011;63468;52.058;4.824;2023-03-01T07:39:10;33.72;;;16.42;;
74908;SDS011;63468;52.058;4.824;2023-03-01T07:41:36;32.72;;;16.75;;
74908;SDS011;63468;52.058;4.824;2023-03-01T07:44:01;35.55;;;16.20;;
74908;SDS011;63468;52.058;4.824;2023-03-01T07:46:26;40.15;;;17.35;;
74908;SDS011;63468;52.058;4.824;2023-03-01T07:48:52;36.65;;;18.58;;
74908;SDS011;63468;52.058;4.824;2023-03-01T07:51:17;35.33;;;14.82;;
74908;SDS011;63468;52.058;4.824;2023-03-01T07:53:45;37.28;;;15.90;;
74908;SDS011;63468;52.058;4.824;2023-03-01T07:56:11;41.92;;;17.50;;
74908;SDS011;63468;52.058;4.824;2023-03-01T07:58:38;31.08;;;15.82;;
74908;SDS011;63468;52.058;4.824;2023-03-01T08:01:06;35.55;;;16.80;;
74908;SDS011;63468;52.058;4.824;2023-03-01T08:03:32;33.40;;;15.65;;
74908;SDS011;63468;52.058;4.824;2023-03-01T08:06:01;32.58;;;15.25;;
74908;SDS011;63468;52.058;4.824;2023-03-01T08:08:28;29.40;;;13.65;;
74908;SDS011;63468;52.058;4.824;2023-03-01T08:10:56;31.40;;;15.05;;
74908;SDS011;63468;52.058;4.824;2023-03-01T08:13:22;28.70;;;14.32;;
74908;SDS011;63468;52.058;4.824;2023-03-01T08:15:48;34.80;;;15.73;;
74908;SDS011;63468;52.058;4.824;2023-03-01T08:18:14;35.78;;;17.63;;
74908;SDS011;63468;52.058;4.824;2023-03-01T08:20:39;32.25;;;14.88;;
74908;SDS011;63468;52.058;4.824;2023-03-01T08:23:05;39.03;;;17.83;;
74908;SDS011;63468;52.058;4.824;2023-03-01T08:25:30;30.05;;;15.52;;
74908;SDS011;63468;52.058;4.824;2023-03-01T08:27:55;31.30;;;14.10;;
74908;SDS011;63468;52.058;4.824;2023-03-01T08:30:21;28.13;;;14.55;;
74908;SDS011;63468;52.058;4.824;2023-03-01T08:32:48;27.70;;;14.20;;
74908;SDS011;63468;52.058;4.824;2023-03-01T08:35:14;27.85;;;12.57;;
74908;SDS011;63468;52.058;4.824;2023-03-01T08:37:39;26.45;;;11.77;;
74908;SDS011;63468;52.058;4.824;2023-03-01T08:40:04;21.02;;;11.77;;
74908;SDS011;63468;52.058;4.824;2023-03-01T08:42:34;25.15;;;11.10;;
74908;SDS011;63468;52.058;4.824;2023-03-01T08:45:00;22.23;;;9.82;;
74908;SDS011;63468;52.058;4.824;2023-03-01T08:47:25;19.75;;;9.70;;
74908;SDS011;63468;52.058;4.824;2023-03-01T08:49:51;23.13;;;10.55;;
74908;SDS011;63468;52.058;4.824;2023-03-01T08:52:17;17.50;;;8.75;;
74908;SDS011;63468;52.058;4.824;2023-03-01T08:54:43;16.33;;;8.73;;
74908;SDS011;63468;52.058;4.824;2023-03-01T08:57:09;16.08;;;9.23;;
74908;SDS011;63468;52.058;4.824;2023-03-01T08:59:34;19.45;;;8.70;;
74908;SDS011;63468;52.058;4.824;2023-03-01T09:02:02;17.67;;;8.57;;
74908;SDS011;63468;52.058;4.824;2023-03-01T09:04:28;18.23;;;8.57;;
74908;SDS011;63468;52.058;4.824;2023-03-01T09:06:54;16.92;;;8.25;;
74908;SDS011;63468;52.058;4.824;2023-03-01T09:09:19;12.25;;;7.13;;
74908;SDS011;63468;52.058;4.824;2023-03-01T09:11:45;15.65;;;8.63;;
74908;SDS011;63468;52.058;4.824;2023-03-01T09:14:12;12.40;;;6.18;;
74908;SDS011;63468;52.058;4.824;2023-03-01T09:16:38;13.82;;;8.32;;
74908;SDS011;63468;52.058;4.824;2023-03-01T09:19:04;16.65;;;7.82;;
74908;SDS011;63468;52.058;4.824;2023-03-01T09:21:30;13.38;;;7.95;;
74908;SDS011;63468;52.058;4.824;2023-03-01T09:23:55;15.50;;;8.13;;
74908;SDS011;63468;52.058;4.824;2023-03-01T09:26:22;15.73;;;8.75;;
74908;SDS011;63468;52.058;4.824;2023-03-01T09:28:48;15.63;;;8.75;;
74908;SDS011;63468;52.058;4.824;2023-03-01T09:31:15;13.70;;;8.80;;
74908;SDS011;63468;52.058;4.824;2023-03-01T09:33:42;15.07;;;8.55;;
74908;SDS011;63468;52.058;4.824;2023-03-01T09:36:15;16.58;;;8.48;;
74908;SDS011;63468;52.058;4.824;2023-03-01T09:38:41;16.60;;;9.70;;
74908;SDS011;63468;52.058;4.824;2023-03-01T09:44:03;13.00;;;8.45;;
74908;SDS011;63468;52.058;4.824;2023-03-01T09:46:53;14.10;;;8.27;;
74908;SDS011;63468;52.058;4.824;2023-03-01T09:49:19;13.90;;;9.05;;
74908;SDS011;63468;52.058;4.824;2023-03-01T09:51:55;18.20;;;9.23;;
74908;SDS011;63468;52.058;4.824;2023-03-01T09:54:22;12.68;;;8.63;;
74908;SDS011;63468;52.058;4.824;2023-03-01T09:57:05;14.85;;;9.32;;
74908;SDS011;63468;52.058;4.824;2023-03-01T10:04:52;19.10;;;9.68;;
74908;SDS011;63468;52.058;4.824;2023-03-01T10:10:18;15.45;;;9.38;;
74908;SDS011;63468;52.058;4.824;2023-03-01T10:12:49;12.32;;;8.32;;
74908;SDS011;63468;52.058;4.824;2023-03-01T10:15:22;17.00;;;11.18;;
74908;SDS011;63468;52.058;4.824;2023-03-01T10:17:57;17.80;;;10.10;;
74908;SDS011;63468;52.058;4.824;2023-03-01T10:20:48;15.57;;;9.05;;
74908;SDS011;63468;52.058;4.824;2023-03-01T10:23:17;17.92;;;9.55;;
74908;SDS011;63468;52.058;4.824;2023-03-01T10:31:11;15.32;;;9.50;;
74908;SDS011;63468;52.058;4.824;2023-03-01T10:33:38;17.05;;;9.90;;
74908;SDS011;63468;52.058;4.824;2023-03-01T10:36:07;16.92;;;9.95;;
74908;SDS011;63468;52.058;4.824;2023-03-01T10:38:47;16.10;;;10.73;;
74908;SDS011;63468;52.058;4.824;2023-03-01T10:41:14;16.77;;;9.52;;
74908;SDS011;63468;52.058;4.824;2023-03-01T10:46:22;19.35;;;10.13;;
74908;SDS011;63468;52.058;4.824;2023-03-01T10:51:48;13.35;;;9.98;;
74908;SDS011;63468;52.058;4.824;2023-03-01T10:57:00;11.18;;;8.73;;
74908;SDS011;63468;52.058;4.824;2023-03-01T10:59:28;15.30;;;9.38;;
74908;SDS011;63468;52.058;4.824;2023-03-01T11:04:34;16.65;;;11.25;;
74908;SDS011;63468;52.058;4.824;2023-03-01T11:07:00;14.60;;;9.88;;
74908;SDS011;63468;52.058;4.824;2023-03-01T11:09:26;13.65;;;10.02;;
74908;SDS011;63468;52.058;4.824;2023-03-01T11:12:02;15.45;;;9.50;;
74908;SDS011;63468;52.058;4.824;2023-03-01T11:14:37;13.15;;;10.15;;
74908;SDS011;63468;52.058;4.824;2023-03-01T11:17:11;11.43;;;9.25;;
74908;SDS011;63468;52.058;4.824;2023-03-01T11:19:39;12.50;;;9.07;;
74908;SDS011;63468;52.058;4.824;2023-03-01T11:22:16;15.38;;;9.95;;
74908;SDS011;63468;52.058;4.824;2023-03-01T11:24:49;10.85;;;8.80;;
74908;SDS011;63468;52.058;4.824;2023-03-01T11:27:18;11.30;;;9.20;;
74908;SDS011;63468;52.058;4.824;2023-03-01T11:29:45;13.93;;;9.30;;
74908;SDS011;63468;52.058;4.824;2023-03-01T11:32:16;14.60;;;9.93;;
74908;SDS011;63468;52.058;4.824;2023-03-01T11:40:13;13.65;;;9.98;;
74908;SDS011;63468;52.058;4.824;2023-03-01T11:51:11;14.18;;;9.52;;
74908;SDS011;63468;52.058;4.824;2023-03-01T11:57:07;12.20;;;9.80;;
74908;SDS011;63468;52.058;4.824;2023-03-01T11:59:53;12.57;;;9.73;;
74908;SDS011;63468;52.058;4.824;2023-03-01T12:10:28;13.20;;;9.50;;
74908;SDS011;63468;52.058;4.824;2023-03-01T12:13:02;12.63;;;9.88;;
74908;SDS011;63468;52.058;4.824;2023-03-01T12:15:42;12.32;;;9.93;;
74908;SDS011;63468;52.058;4.824;2023-03-01T12:18:32;12.57;;;9.40;;
74908;SDS011;63468;52.058;4.824;2023-03-01T12:21:15;14.50;;;9.90;;
74908;SDS011;63468;52.058;4.824;2023-03-01T12:26:18;13.43;;;9.65;;
74908;SDS011;63468;52.058;4.824;2023-03-01T12:31:35;15.48;;;10.68;;
74908;SDS011;63468;52.058;4.824;2023-03-01T12:34:25;14.10;;;9.63;;
74908;SDS011;63468;52.058;4.824;2023-03-01T12:44:58;12.73;;;9.52;;
74908;SDS011;63468;52.058;4.824;2023-03-01T12:50:19;11.43;;;10.00;;
74908;SDS011;63468;52.058;4.824;2023-03-01T12:52:51;12.50;;;9.73;;
74908;SDS011;63468;52.058;4.824;2023-03-01T12:55:29;13.75;;;10.38;;
74908;SDS011;63468;52.058;4.824;2023-03-01T13:00:34;13.63;;;9.88;;
74908;SDS011;63468;52.058;4.824;2023-03-01T13:03:19;13.07;;;10.35;;
74908;SDS011;63468;52.058;4.824;2023-03-01T13:11:28;12.25;;;10.07;;
74908;SDS011;63468;52.058;4.824;2023-03-01T13:14:18;11.88;;;9.48;;
74908;SDS011;63468;52.058;4.824;2023-03-01T13:16:53;16.17;;;11.38;;
74908;SDS011;63468;52.058;4.824;2023-03-01T13:19:20;13.15;;;9.45;;
74908;SDS011;63468;52.058;4.824;2023-03-01T13:21:49;12.45;;;9.52;;
74908;SDS011;63468;52.058;4.824;2023-03-01T13:27:38;14.15;;;10.80;;
74908;SDS011;63468;52.058;4.824;2023-03-01T13:29:57;15.30;;;9.88;;
74908;SDS011;63468;52.058;4.824;2023-03-01T13:32:31;16.13;;;10.48;;
74908;SDS011;63468;52.058;4.824;2023-03-01T13:35:01;16.67;;;10.38;;
74908;SDS011;63468;52.058;4.824;2023-03-01T13:37:31;14.45;;;11.15;;
74908;SDS011;63468;52.058;4.824;2023-03-01T13:39:58;17.02;;;10.93;;
74908;SDS011;63468;52.058;4.824;2023-03-01T13:42:40;13.77;;;10.65;;
74908;SDS011;63468;52.058;4.824;2023-03-01T13:45:32;17.77;;;9.63;;
74908;SDS011;63468;52.058;4.824;2023-03-01T13:48:08;11.93;;;8.23;;
74908;SDS011;63468;52.058;4.824;2023-03-01T13:50:45;16.25;;;9.57;;
74908;SDS011;63468;52.058;4.824;2023-03-01T13:53:20;11.05;;;9.15;;
74908;SDS011;63468;52.058;4.824;2023-03-01T13:55:48;13.15;;;9.13;;
74908;SDS011;63468;52.058;4.824;2023-03-01T13:58:24;12.23;;;9.02;;
74908;SDS011;63468;52.058;4.824;2023-03-01T14:00:58;11.00;;;9.20;;
74908;SDS011;63468;52.058;4.824;2023-03-01T14:03:28;10.65;;;9.32;;
74908;SDS011;63468;52.058;4.824;2023-03-01T14:08:31;13.10;;;9.10;;
74908;SDS011;63468;52.058;4.824;2023-03-01T14:13:48;13.32;;;9.18;;
74908;SDS011;63468;52.058;4.824;2023-03-01T14:21:41;12.90;;;9.90;;
74908;SDS011;63468;52.058;4.824;2023-03-01T14:24:15;13.23;;;8.98;;
74908;SDS011;63468;52.058;4.824;2023-03-01T14:26:42;11.02;;;8.63;;
74908;SDS011;63468;52.058;4.824;2023-03-01T14:29:22;13.05;;;9.05;;
74908;SDS011;63468;52.058;4.824;2023-03-01T14:31:49;10.35;;;7.65;;
74908;SDS011;63468;52.058;4.824;2023-03-01T14:34:21;13.07;;;9.25;;
74908;SDS011;63468;52.058;4.824;2023-03-01T14:36:50;12.50;;;9.35;;
74908;SDS011;63468;52.058;4.824;2023-03-01T14:39:17;14.95;;;9.30;;
74908;SDS011;63468;52.058;4.824;2023-03-01T14:41:44;12.00;;;9.00;;
74908;SDS011;63468;52.058;4.824;2023-03-01T14:44:12;13.13;;;9.90;;
74908;SDS011;63468;52.058;4.824;2023-03-01T14:46:41;12.05;;;9.60;;
74908;SDS011;63468;52.058;4.824;2023-03-01T14:49:24;12.07;;;9.35;;
74908;SDS011;63468;52.058;4.824;2023-03-01T14:51:53;14.52;;;9.68;;
74908;SDS011;63468;52.058;4.824;2023-03-01T14:54:25;11.57;;;9.88;;
74908;SDS011;63468;52.058;4.824;2023-03-01T14:56:53;12.13;;;9.60;;
74908;SDS011;63468;52.058;4.824;2023-03-01T14:59:23;15.10;;;9.80;;
74908;SDS011;63468;52.058;4.824;2023-03-01T15:01:50;11.35;;;9.00;;
74908;SDS011;63468;52.058;4.824;2023-03-01T15:04:16;12.05;;;8.93;;
74908;SDS011;63468;52.058;4.824;2023-03-01T15:06:41;17.50;;;9.38;;
74908;SDS011;63468;52.058;4.824;2023-03-01T15:09:07;12.50;;;8.73;;
74908;SDS011;63468;52.058;4.824;2023-03-01T15:11:38;12.10;;;9.57;;
74908;SDS011;63468;52.058;4.824;2023-03-01T15:14:25;11.80;;;8.85;;
74908;SDS011;63468;52.058;4.824;2023-03-01T15:17:01;12.50;;;9.32;;
74908;SDS011;63468;52.058;4.824;2023-03-01T15:19:26;12.55;;;8.93;;
74908;SDS011;63468;52.058;4.824;2023-03-01T15:21:52;11.10;;;8.30;;
74908;SDS011;63468;52.058;4.824;2023-03-01T15:24:27;12.38;;;8.50;;
74908;SDS011;63468;52.058;4.824;2023-03-01T15:26:57;10.52;;;8.38;;
74908;SDS011;63468;52.058;4.824;2023-03-01T15:29:27;13.25;;;9.52;;
74908;SDS011;63468;52.058;4.824;2023-03-01T15:34:25;17.73;;;8.98;;
74908;SDS011;63468;52.058;4.824;2023-03-01T15:36:53;12.23;;;8.75;;
74908;SDS011;63468;52.058;4.824;2023-03-01T15:39:33;11.00;;;7.90;;
74908;SDS011;63468;52.058;4.824;2023-03-01T15:42:13;16.10;;;9.15;;
74908;SDS011;63468;52.058;4.824;2023-03-01T15:47:52;12.55;;;8.38;;
74908;SDS011;63468;52.058;4.824;2023-03-01T15:50:20;13.57;;;8.90;;
74908;SDS011;63468;52.058;4.824;2023-03-01T15:52:58;16.70;;;8.82;;
74908;SDS011;63468;52.058;4.824;2023-03-01T15:55:25;13.02;;;9.50;;
74908;SDS011;63468;52.058;4.824;2023-03-01T15:58:02;15.68;;;9.00;;
74908;SDS011;63468;52.058;4.824;2023-03-01T16:00:29;11.50;;;8.68;;
74908;SDS011;63468;52.058;4.824;2023-03-01T16:02:54;10.23;;;8.95;;
74908;SDS011;63468;52.058;4.824;2023-03-01T16:05:22;13.15;;;8.73;;
74908;SDS011;63468;52.058;4.824;2023-03-01T16:07:48;14.00;;;8.52;;
74908;SDS011;63468;52.058;4.824;2023-03-01T16:10:13;11.38;;;8.73;;
74908;SDS011;63468;52.058;4.824;2023-03-01T16:12:39;14.30;;;8.35;;
74908;SDS011;63468;52.058;4.824;2023-03-01T16:15:08;12.70;;;8.13;;
74908;SDS011;63468;52.058;4.824;2023-03-01T16:17:39;14.13;;;8.07;;
74908;SDS011;63468;52.058;4.824;2023-03-01T16:20:04;12.38;;;8.80;;
74908;SDS011;63468;52.058;4.824;2023-03-01T16:22:30;14.52;;;8.75;;